sensor_id;sensor_type;location;lat;lon;timestamp;pressure;altitude;pressure_sealevel;temperature;humidity
21300;BME280;10809;49.476;11.016;2023-03-13T00:01:48;97816.72;;;7.01;65.37
21300;BME280;10809;49.476;11.016;2023-03-13T00:04:18;97811.53;;;6.99;65.40
21300;BME280;10809;49.476;11.016;2023-03-13T00:06:52;97799.34;;;6.97;65.39
21300;BME280;10809;49.476;11.016;2023-03-13T00:09:22;97796.78;;;6.95;65.53
21300;BME280;10809;49.476;11.016;2023-03-13T00:11:53;97786.34;;;6.94;65.23
21300;BME280;10809;49.476;11.016;2023-03-13T00:14:23;97782.09;;;6.91;65.39
21300;BME280;10809;49.476;11.016;2023-03-13T00:16:54;97775.97;;;6.91;65.52
21300;BME280;10809;49.476;11.016;2023-03-13T00:19:24;97774.28;;;6.90;65.30
21300;BME280;10809;49.476;11.016;2023-03-13T00:22:01;97772.56;;;6.89;65.63
21300;BME280;10809;49.476;11.016;2023-03-13T00:24:32;97777.84;;;6.89;65.48
21300;BME280;10809;49.476;11.016;2023-03-13T00:27:03;97769.09;;;6.88;65.49
21300;BME280;10809;49.476;11.016;2023-03-13T00:29:40;97768.22;;;6.88;65.59
21300;BME280;10809;49.476;11.016;2023-03-13T00:32:11;97772.56;;;6.89;65.48
21300;BME280;10809;49.476;11.016;2023-03-13T00:34:41;97766.44;;;6.88;65.47
21300;BME280;10809;49.476;11.016;2023-03-13T00:37:12;97773.41;;;6.89;65.44
21300;BME280;10809;49.476;11.016;2023-03-13T00:39:42;97766.44;;;6.88;65.51
21300;BME280;10809;49.476;11.016;2023-03-13T00:42:14;97762.88;;;6.89;65.60
21300;BME280;10809;49.476;11.016;2023-03-13T00:44:57;97762.97;;;6.88;65.36
21300;BME280;10809;49.476;11.016;2023-03-13T00:47:27;97765.59;;;6.88;65.31
21300;BME280;10809;49.476;11.016;2023-03-13T00:49:58;97760.31;;;6.88;65.42
21300;BME280;10809;49.476;11.016;2023-03-13T00:52:31;97769.16;;;6.87;65.18
21300;BME280;10809;49.476;11.016;2023-03-13T00:55:02;97769.16;;;6.87;65.43
21300;BME280;10809;49.476;11.016;2023-03-13T00:57:33;97767.47;;;6.86;65.17
21300;BME280;10809;49.476;11.016;2023-03-13T01:00:10;97771.88;;;6.85;65.46
21300;BME280;10809;49.476;11.016;2023-03-13T01:02:42;97765.75;;;6.85;65.50
21300;BME280;10809;49.476;11.016;2023-03-13T01:05:16;97758.78;;;6.84;65.51
21300;BME280;10809;49.476;11.016;2023-03-13T01:07:50;97752.66;;;6.83;65.54
21300;BME280;10809;49.476;11.016;2023-03-13T01:10:20;97737.81;;;6.82;65.43
21300;BME280;10809;49.476;11.016;2023-03-13T01:12:50;97733.50;;;6.81;65.37
21300;BME280;10809;49.476;11.016;2023-03-13T01:15:21;97748.41;;;6.81;65.55
21300;BME280;10809;49.476;11.016;2023-03-13T01:17:52;97747.56;;;6.80;65.38
21300;BME280;10809;49.476;11.016;2023-03-13T01:20:22;97748.50;;;6.79;65.48
21300;BME280;10809;49.476;11.016;2023-03-13T01:22:57;97739.72;;;6.79;65.41
21300;BME280;10809;49.476;11.016;2023-03-13T01:25:28;97737.09;;;6.79;65.39
21300;BME280;10809;49.476;11.016;2023-03-13T01:27:59;97729.28;;;6.77;65.45
21300;BME280;10809;49.476;11.016;2023-03-13T01:30:31;97731.91;;;6.77;65.20
21300;BME280;10809;49.476;11.016;2023-03-13T01:33:02;97726.72;;;6.76;65.34
21300;BME280;10809;49.476;11.016;2023-03-13T01:35:33;97723.25;;;6.75;65.17
21300;BME280;10809;49.476;11.016;2023-03-13T01:38:03;97718.91;;;6.74;65.45
21300;BME280;10809;49.476;11.016;2023-03-13T01:40:42;97720.75;;;6.72;65.32
21300;BME280;10809;49.476;11.016;2023-03-13T01:43:26;97707.69;;;6.71;65.42
21300;BME280;10809;49.476;11.016;2023-03-13T01:49:20;97708.69;;;6.68;65.44
21300;BME280;10809;49.476;11.016;2023-03-13T01:52:25;97708.84;;;6.65;65.07
21300;BME280;10809;49.476;11.016;2023-03-13T01:55:11;97699.28;;;6.64;65.22
21300;BME280;10809;49.476;11.016;2023-03-13T01:57:50;97700.97;;;6.65;65.34
21300;BME280;10809;49.476;11.016;2023-03-13T02:00:31;97698.41;;;6.64;65.46
21300;BME280;10809;49.476;11.016;2023-03-13T02:03:06;97693.16;;;6.64;65.43
21300;BME280;10809;49.476;11.016;2023-03-13T02:05:40;97699.28;;;6.64;65.53
21300;BME280;10809;49.476;11.016;2023-03-13T02:08:22;97691.38;;;6.64;65.08
21300;BME280;10809;49.476;11.016;2023-03-13T02:14:02;97687.81;;;6.65;65.44
21300;BME280;10809;49.476;11.016;2023-03-13T02:16:40;97678.97;;;6.66;65.47
21300;BME280;10809;49.476;11.016;2023-03-13T02:19:19;97675.53;;;6.66;65.33
21300;BME280;10809;49.476;11.016;2023-03-13T02:28:06;97664.91;;;6.67;65.17
21300;BME280;10809;49.476;11.016;2023-03-13T02:30:42;97654.41;;;6.67;65.31
21300;BME280;10809;49.476;11.016;2023-03-13T02:33:17;97656.09;;;6.68;65.53
21300;BME280;10809;49.476;11.016;2023-03-13T02:35:49;97657.78;;;6.69;65.56
21300;BME280;10809;49.476;11.016;2023-03-13T02:38:28;97650.75;;;6.70;65.46
21300;BME280;10809;49.476;11.016;2023-03-13T02:41:00;97651.63;;;6.70;65.60
21300;BME280;10809;49.476;11.016;2023-03-13T02:43:34;97647.25;;;6.69;65.46
21300;BME280;10809;49.476;11.016;2023-03-13T02:46:07;97643.72;;;6.70;65.58
21300;BME280;10809;49.476;11.016;2023-03-13T02:48:44;97636.59;;;6.72;65.52
21300;BME280;10809;49.476;11.016;2023-03-13T02:54:09;97633.94;;;6.72;65.33
21300;BME280;10809;49.476;11.016;2023-03-13T02:56:42;97626.94;;;6.73;65.64
21300;BME280;10809;49.476;11.016;2023-03-13T02:59:14;97625.97;;;6.74;65.57
21300;BME280;10809;49.476;11.016;2023-03-13T03:01:47;97625.06;;;6.75;65.68
21300;BME280;10809;49.476;11.016;2023-03-13T03:04:23;97623.28;;;6.75;65.44
21300;BME280;10809;49.476;11.016;2023-03-13T03:06:59;97632.88;;;6.76;65.35
21300;BME280;10809;49.476;11.016;2023-03-13T03:09:32;97622.38;;;6.76;65.49
21300;BME280;10809;49.476;11.016;2023-03-13T03:12:07;97622.44;;;6.75;65.11
21300;BME280;10809;49.476;11.016;2023-03-13T03:14:38;97617.97;;;6.77;65.54
21300;BME280;10809;49.476;11.016;2023-03-13T03:17:16;97615.34;;;6.77;65.73
21300;BME280;10809;49.476;11.016;2023-03-13T03:19:46;97616.16;;;6.77;65.59
21300;BME280;10809;49.476;11.016;2023-03-13T03:22:17;97610.91;;;6.77;65.56
21300;BME280;10809;49.476;11.016;2023-03-13T03:24:47;97613.53;;;6.77;65.79
21300;BME280;10809;49.476;11.016;2023-03-13T03:27:18;97610.91;;;6.77;65.82
21300;BME280;10809;49.476;11.016;2023-03-13T03:29:55;97610.91;;;6.77;65.23
21300;BME280;10809;49.476;11.016;2023-03-13T03:32:28;97603.00;;;6.77;65.68
21300;BME280;10809;49.476;11.016;2023-03-13T03:34:59;97605.66;;;6.77;65.83
21300;BME280;10809;49.476;11.016;2023-03-13T03:37:30;97604.81;;;6.77;65.67
21300;BME280;10809;49.476;11.016;2023-03-13T03:40:02;97604.81;;;6.77;65.70
21300;BME280;10809;49.476;11.016;2023-03-13T03:42:39;97608.28;;;6.77;65.53
21300;BME280;10809;49.476;11.016;2023-03-13T03:45:09;97607.44;;;6.77;65.75
21300;BME280;10809;49.476;11.016;2023-03-13T03:47:40;97606.50;;;6.78;65.80
21300;BME280;10809;49.476;11.016;2023-03-13T03:50:11;97602.09;;;6.78;65.88
21300;BME280;10809;49.476;11.016;2023-03-13T03:52:51;97596.84;;;6.78;66.00
21300;BME280;10809;49.476;11.016;2023-03-13T03:55:24;97589.78;;;6.79;65.71
21300;BME280;10809;49.476;11.016;2023-03-13T03:57:55;97582.75;;;6.79;66.09
21300;BME280;10809;49.476;11.016;2023-03-13T04:00:46;97573.91;;;6.80;66.16
21300;BME280;10809;49.476;11.016;2023-03-13T04:03:17;97569.59;;;6.79;66.19
21300;BME280;10809;49.476;11.016;2023-03-13T04:05:48;97563.41;;;6.80;66.25
21300;BME280;10809;49.476;11.016;2023-03-13T04:08:19;97565.13;;;6.81;66.01
21300;BME280;10809;49.476;11.016;2023-03-13T04:10:50;97563.31;;;6.82;66.25
21300;BME280;10809;49.476;11.016;2023-03-13T04:13:24;97554.59;;;6.81;66.10
21300;BME280;10809;49.476;11.016;2023-03-13T04:15:54;97547.44;;;6.83;66.38
21300;BME280;10809;49.476;11.016;2023-03-13T04:18:25;97539.47;;;6.85;66.44
21300;BME280;10809;49.476;11.016;2023-03-13T04:21:03;97536.75;;;6.86;66.42
21300;BME280;10809;49.476;11.016;2023-03-13T04:23:39;97527.97;;;6.87;66.37
21300;BME280;10809;49.476;11.016;2023-03-13T04:26:09;97530.50;;;6.89;66.47
21300;BME280;10809;49.476;11.016;2023-03-13T04:28:41;97526.94;;;6.90;66.33
21300;BME280;10809;49.476;11.016;2023-03-13T04:31:20;97518.09;;;6.91;66.17
21300;BME280;10809;49.476;11.016;2023-03-13T04:34:05;97515.38;;;6.92;66.46
21300;BME280;10809;49.476;11.016;2023-03-13T04:36:52;97512.66;;;6.94;66.33
21300;BME280;10809;49.476;11.016;2023-03-13T04:39:41;97510.91;;;6.94;66.38
21300;BME280;10809;49.476;11.016;2023-03-13T04:42:25;97503.00;;;6.94;66.33
21300;BME280;10809;49.476;11.016;2023-03-13T04:45:05;97514.22;;;6.98;66.42
21300;BME280;10809;49.476;11.016;2023-03-13T04:47:53;97521.19;;;6.99;66.51
21300;BME280;10809;49.476;11.016;2023-03-13T04:50:33;97511.50;;;6.99;66.30
21300;BME280;10809;49.476;11.016;2023-03-13T04:53:15;97505.31;;;7.00;66.50
21300;BME280;10809;49.476;11.016;2023-03-13T04:56:10;97497.41;;;7.00;66.57
21300;BME280;10809;49.476;11.016;2023-03-13T04:58:53;97518.38;;;7.02;66.35
21300;BME280;10809;49.476;11.016;2023-03-13T05:02:01;97514.88;;;7.01;66.33
21300;BME280;10809;49.476;11.016;2023-03-13T05:04:56;97510.47;;;7.02;66.64
21300;BME280;10809;49.476;11.016;2023-03-13T05:07:49;97511.34;;;7.02;66.57
21300;BME280;10809;49.476;11.016;2023-03-13T05:10:38;97508.72;;;7.02;66.66
21300;BME280;10809;49.476;11.016;2023-03-13T05:13:41;97503.44;;;7.02;66.78
21300;BME280;10809;49.476;11.016;2023-03-13T05:16:43;97499.94;;;7.02;66.89
21300;BME280;10809;49.476;11.016;2023-03-13T05:19:32;97495.63;;;7.01;66.78
21300;BME280;10809;49.476;11.016;2023-03-13T05:22:13;97491.28;;;7.00;66.80
21300;BME280;10809;49.476;11.016;2023-03-13T05:25:14;97489.50;;;7.00;67.17
21300;BME280;10809;49.476;11.016;2023-03-13T05:28:06;97483.47;;;6.98;67.14
21300;BME280;10809;49.476;11.016;2023-03-13T05:30:54;97486.97;;;6.99;67.30
21300;BME280;10809;49.476;11.016;2023-03-13T05:33:43;97474.75;;;6.98;67.04
21300;BME280;10809;49.476;11.016;2023-03-13T05:36:26;97465.13;;;6.97;67.45
21300;BME280;10809;49.476;11.016;2023-03-13T05:39:19;97465.22;;;6.95;67.70
21300;BME280;10809;49.476;11.016;2023-03-13T05:42:01;97453.78;;;6.96;67.55
21300;BME280;10809;49.476;11.016;2023-03-13T05:44:48;97448.59;;;6.95;67.68
21300;BME280;10809;49.476;11.016;2023-03-13T05:47:38;97451.06;;;6.98;67.67
21300;BME280;10809;49.476;11.016;2023-03-13T05:50:22;97453.63;;;6.99;67.52
21300;BME280;10809;49.476;11.016;2023-03-13T05:52:58;97446.53;;;7.00;67.63
21300;BME280;10809;49.476;11.016;2023-03-13T05:56:16;97449.09;;;7.01;67.37
21300;BME280;10809;49.476;11.016;2023-03-13T05:59:16;97441.97;;;7.03;67.57
21300;BME280;10809;49.476;11.016;2023-03-13T06:02:12;97444.59;;;7.03;68.00
21300;BME280;10809;49.476;11.016;2023-03-13T06:04:47;97439.34;;;7.03;67.80
21300;BME280;10809;49.476;11.016;2023-03-13T06:07:17;97441.03;;;7.04;67.85
21300;BME280;10809;49.476;11.016;2023-03-13T06:09:48;97435.75;;;7.04;68.01
21300;BME280;10809;49.476;11.016;2023-03-13T06:12:18;97433.13;;;7.04;68.24
21300;BME280;10809;49.476;11.016;2023-03-13T06:14:50;97432.22;;;7.05;68.33
21300;BME280;10809;49.476;11.016;2023-03-13T06:17:28;97422.53;;;7.06;68.51
21300;BME280;10809;49.476;11.016;2023-03-13T06:20:01;97419.84;;;7.07;68.59
21300;BME280;10809;49.476;11.016;2023-03-13T06:22:31;97419.00;;;7.07;68.76
21300;BME280;10809;49.476;11.016;2023-03-13T06:25:02;97423.25;;;7.09;68.61
21300;BME280;10809;49.476;11.016;2023-03-13T06:27:32;97419.66;;;7.10;68.75
21300;BME280;10809;49.476;11.016;2023-03-13T06:30:03;97427.56;;;7.10;69.15
21300;BME280;10809;49.476;11.016;2023-03-13T06:32:34;97429.19;;;7.13;69.43
21300;BME280;10809;49.476;11.016;2023-03-13T06:35:05;97423.75;;;7.16;69.15
21300;BME280;10809;49.476;11.016;2023-03-13T06:37:36;97424.50;;;7.18;69.21
21300;BME280;10809;49.476;11.016;2023-03-13T06:40:06;97419.16;;;7.19;69.36
21300;BME280;10809;49.476;11.016;2023-03-13T06:42:37;97425.19;;;7.21;69.20
21300;BME280;10809;49.476;11.016;2023-03-13T06:45:08;97422.56;;;7.21;69.13
21300;BME280;10809;49.476;11.016;2023-03-13T06:47:39;97417.13;;;7.24;69.60
21300;BME280;10809;49.476;11.016;2023-03-13T06:50:10;97410.00;;;7.26;69.25
21300;BME280;10809;49.476;11.016;2023-03-13T06:52:40;97401.16;;;7.27;69.47
21300;BME280;10809;49.476;11.016;2023-03-13T06:55:11;97403.69;;;7.29;69.24
21300;BME280;10809;49.476;11.016;2023-03-13T06:57:42;97400.97;;;7.30;69.29
21300;BME280;10809;49.476;11.016;2023-03-13T07:00:13;97402.69;;;7.31;69.28
21300;BME280;10809;49.476;11.016;2023-03-13T07:02:46;97397.25;;;7.34;69.42
21300;BME280;10809;49.476;11.016;2023-03-13T07:05:17;97399.78;;;7.36;69.23
21300;BME280;10809;49.476;11.016;2023-03-13T07:07:48;97400.53;;;7.38;69.54
21300;BME280;10809;49.476;11.016;2023-03-13T07:10:19;97397.72;;;7.41;69.73
21300;BME280;10809;49.476;11.016;2023-03-13T07:12:50;97396.81;;;7.42;69.72
21300;BME280;10809;49.476;11.016;2023-03-13T07:15:20;97401.03;;;7.44;69.59
21300;BME280;10809;49.476;11.016;2023-03-13T07:17:51;97406.13;;;7.47;69.75
21300;BME280;10809;49.476;11.016;2023-03-13T07:20:21;97395.50;;;7.49;69.64
21300;BME280;10809;49.476;11.016;2023-03-13T07:22:52;97402.28;;;7.53;69.83
21300;BME280;10809;49.476;11.016;2023-03-13T07:25:22;97398.56;;;7.57;70.16
21300;BME280;10809;49.476;11.016;2023-03-13T07:27:56;97402.78;;;7.59;69.93
21300;BME280;10809;49.476;11.016;2023-03-13T07:30:27;97411.28;;;7.64;70.22
21300;BME280;10809;49.476;11.016;2023-03-13T07:32:57;97411.84;;;7.69;69.98
21300;BME280;10809;49.476;11.016;2023-03-13T07:35:28;97401.97;;;7.73;69.99
21300;BME280;10809;49.476;11.016;2023-03-13T07:37:58;97401.69;;;7.77;69.95
21300;BME280;10809;49.476;11.016;2023-03-13T07:40:32;97403.16;;;7.83;69.94
21300;BME280;10809;49.476;11.016;2023-03-13T07:43:05;97400.25;;;7.88;70.01
21300;BME280;10809;49.476;11.016;2023-03-13T07:45:36;97406.06;;;7.93;69.88
21300;BME280;10809;49.476;11.016;2023-03-13T07:48:06;97405.78;;;7.97;69.96
21300;BME280;10809;49.476;11.016;2023-03-13T07:50:37;97399.31;;;8.03;70.24
21300;BME280;10809;49.476;11.016;2023-03-13T07:53:10;97387.56;;;8.08;69.83
21300;BME280;10809;49.476;11.016;2023-03-13T07:55:51;97384.53;;;8.14;69.63
21300;BME280;10809;49.476;11.016;2023-03-13T07:58:23;97380.59;;;8.21;70.08
21300;BME280;10809;49.476;11.016;2023-03-13T08:00:57;97381.94;;;8.28;70.28
21300;BME280;10809;49.476;11.016;2023-03-13T08:03:28;97377.97;;;8.35;70.27
21300;BME280;10809;49.476;11.016;2023-03-13T08:06:05;97371.38;;;8.42;69.78
21300;BME280;10809;49.476;11.016;2023-03-13T08:08:37;97372.78;;;8.48;69.98
21300;BME280;10809;49.476;11.016;2023-03-13T08:11:19;97361.84;;;8.54;69.80
21300;BME280;10809;49.476;11.016;2023-03-13T08:13:51;97371.06;;;8.61;69.59
21300;BME280;10809;49.476;11.016;2023-03-13T08:16:30;97373.34;;;8.67;69.65
21300;BME280;10809;49.476;11.016;2023-03-13T08:19:08;97373.91;;;8.72;69.38
21300;BME280;10809;49.476;11.016;2023-03-13T08:21:51;97376.16;;;8.78;69.50
21300;BME280;10809;49.476;11.016;2023-03-13T08:24:23;97382.00;;;8.83;69.27
21300;BME280;10809;49.476;11.016;2023-03-13T08:26:53;97376.44;;;8.87;69.44
21300;BME280;10809;49.476;11.016;2023-03-13T08:29:23;97363.81;;;8.92;69.47
21300;BME280;10809;49.476;11.016;2023-03-13T08:31:57;97367.84;;;8.98;69.36
21300;BME280;10809;49.476;11.016;2023-03-13T08:34:27;97364.91;;;9.02;69.18
21300;BME280;10809;49.476;11.016;2023-03-13T08:36:58;97368.09;;;9.07;69.40
21300;BME280;10809;49.476;11.016;2023-03-13T08:39:28;97366.00;;;9.12;69.52
21300;BME280;10809;49.476;11.016;2023-03-13T08:42:02;97353.44;;;9.16;68.97
21300;BME280;10809;49.476;11.016;2023-03-13T08:44:32;97347.84;;;9.20;69.16
21300;BME280;10809;49.476;11.016;2023-03-13T08:47:05;97351.88;;;9.26;68.97
21300;BME280;10809;49.476;11.016;2023-03-13T08:49:44;97360.34;;;9.31;69.25
21300;BME280;10809;49.476;11.016;2023-03-13T08:52:15;97360.16;;;9.34;69.59
21300;BME280;10809;49.476;11.016;2023-03-13T08:54:47;97353.75;;;9.38;69.11
21300;BME280;10809;49.476;11.016;2023-03-13T08:57:18;97357.88;;;9.42;69.09
21300;BME280;10809;49.476;11.016;2023-03-13T08:59:48;97350.50;;;9.47;69.31
21300;BME280;10809;49.476;11.016;2023-03-13T09:02:20;97343.94;;;9.52;69.75
21300;BME280;10809;49.476;11.016;2023-03-13T09:04:51;97350.50;;;9.59;69.78
21300;BME280;10809;49.476;11.016;2023-03-13T09:07:21;97352.63;;;9.67;69.63
21300;BME280;10809;49.476;11.016;2023-03-13T09:09:52;97346.94;;;9.73;69.77
21300;BME280;10809;49.476;11.016;2023-03-13T09:12:22;97347.28;;;9.81;69.59
21300;BME280;10809;49.476;11.016;2023-03-13T09:14:53;97344.00;;;9.90;70.03
21300;BME280;10809;49.476;11.016;2023-03-13T09:17:23;97335.34;;;10.01;70.27
21300;BME280;10809;49.476;11.016;2023-03-13T09:19:58;97334.50;;;10.13;70.62
21300;BME280;10809;49.476;11.016;2023-03-13T09:22:32;97326.56;;;10.25;70.31
21300;BME280;10809;49.476;11.016;2023-03-13T09:25:06;97326.47;;;10.39;70.28
21300;BME280;10809;49.476;11.016;2023-03-13T09:27:36;97323.81;;;10.52;70.30
21300;BME280;10809;49.476;11.016;2023-03-13T09:30:07;97316.78;;;10.63;70.12
21300;BME280;10809;49.476;11.016;2023-03-13T09:32:47;97320.44;;;10.73;69.78
21300;BME280;10809;49.476;11.016;2023-03-13T09:35:19;97317.13;;;10.82;69.57
21300;BME280;10809;49.476;11.016;2023-03-13T09:37:50;97317.44;;;10.90;69.60
21300;BME280;10809;49.476;11.016;2023-03-13T09:40:22;97310.66;;;10.99;69.47
21300;BME280;10809;49.476;11.016;2023-03-13T09:42:58;97318.84;;;11.07;69.19
21300;BME280;10809;49.476;11.016;2023-03-13T09:45:39;97306.75;;;11.15;69.34
21300;BME280;10809;49.476;11.016;2023-03-13T09:51:26;97302.53;;;11.37;69.64
21300;BME280;10809;49.476;11.016;2023-03-13T09:56:44;97294.56;;;11.71;70.37
21300;BME280;10809;49.476;11.016;2023-03-13T10:02:23;97301.41;;;12.08;69.28
21300;BME280;10809;49.476;11.016;2023-03-13T10:05:14;97299.34;;;12.23;68.92
21300;BME280;10809;49.476;11.016;2023-03-13T10:07:49;97309.38;;;12.30;68.04
21300;BME280;10809;49.476;11.016;2023-03-13T10:10:28;97309.13;;;12.33;67.46
21300;BME280;10809;49.476;11.016;2023-03-13T10:13:22;97311.66;;;12.35;67.36
21300;BME280;10809;49.476;11.016;2023-03-13T10:15:57;97314.44;;;12.33;66.88
21300;BME280;10809;49.476;11.016;2023-03-13T10:18:31;97312.75;;;12.32;66.77
21300;BME280;10809;49.476;11.016;2023-03-13T10:21:13;97315.53;;;12.31;66.42
21300;BME280;10809;49.476;11.016;2023-03-13T10:23:51;97305.97;;;12.28;66.43
21300;BME280;10809;49.476;11.016;2023-03-13T10:26:29;97316.84;;;12.25;66.37
21300;BME280;10809;49.476;11.016;2023-03-13T10:29:20;97324.22;;;12.22;66.35
21300;BME280;10809;49.476;11.016;2023-03-13T10:32:06;97317.44;;;12.18;66.33
21300;BME280;10809;49.476;11.016;2023-03-13T10:34:56;97331.91;;;12.14;66.29
21300;BME280;10809;49.476;11.016;2023-03-13T10:37:32;97329.63;;;12.09;66.12
21300;BME280;10809;49.476;11.016;2023-03-13T10:40:23;97324.56;;;12.06;66.17
21300;BME280;10809;49.476;11.016;2023-03-13T10:43:27;97318.63;;;12.03;65.93
21300;BME280;10809;49.476;11.016;2023-03-13T10:45:59;97320.56;;;12.01;66.22
21300;BME280;10809;49.476;11.016;2023-03-13T10:48:35;97318.03;;;11.99;65.95
21300;BME280;10809;49.476;11.016;2023-03-13T10:51:20;97314.75;;;11.96;66.32
21300;BME280;10809;49.476;11.016;2023-03-13T10:53:51;97334.31;;;11.95;66.36
21300;BME280;10809;49.476;11.016;2023-03-13T10:56:28;97317.66;;;11.93;66.32
21300;BME280;10809;49.476;11.016;2023-03-13T10:59:24;97315.97;;;11.92;66.37
21300;BME280;10809;49.476;11.016;2023-03-13T11:02:01;97322.22;;;11.91;66.23
21300;BME280;10809;49.476;11.016;2023-03-13T11:04:34;97311.63;;;11.91;66.20
21300;BME280;10809;49.476;11.016;2023-03-13T11:07:15;97314.25;;;11.91;66.36
21300;BME280;10809;49.476;11.016;2023-03-13T11:10:28;97311.63;;;11.91;66.52
21300;BME280;10809;49.476;11.016;2023-03-13T11:12:59;97298.34;;;11.91;66.11
21300;BME280;10809;49.476;11.016;2023-03-13T11:15:46;97282.31;;;11.92;66.65
21300;BME280;10809;49.476;11.016;2023-03-13T11:21:56;97291.84;;;12.06;66.96
21300;BME280;10809;49.476;11.016;2023-03-13T11:24:57;97277.88;;;12.15;67.04
21300;BME280;10809;49.476;11.016;2023-03-13T11:27:42;97263.19;;;12.22;67.06
21300;BME280;10809;49.476;11.016;2023-03-13T11:30:44;97258.81;;;12.32;67.35
21300;BME280;10809;49.476;11.016;2023-03-13T11:33:40;97249.09;;;12.43;67.46
21300;BME280;10809;49.476;11.016;2023-03-13T11:36:21;97270.06;;;12.57;67.23
21300;BME280;10809;49.476;11.016;2023-03-13T11:44:23;97238.47;;;12.86;65.68
21300;BME280;10809;49.476;11.016;2023-03-13T11:53:15;97270.97;;;12.89;65.15
21300;BME280;10809;49.476;11.016;2023-03-13T12:01:19;97268.69;;;12.85;64.37
21300;BME280;10809;49.476;11.016;2023-03-13T12:04:13;97264.47;;;12.82;64.90
21300;BME280;10809;49.476;11.016;2023-03-13T12:07:04;97259.97;;;12.83;64.75
21300;BME280;10809;49.476;11.016;2023-03-13T12:10:02;97245.88;;;12.82;64.76
21300;BME280;10809;49.476;11.016;2023-03-13T12:13:00;97245.88;;;12.82;64.90
21300;BME280;10809;49.476;11.016;2023-03-13T12:15:38;97238.47;;;12.86;64.67
21300;BME280;10809;49.476;11.016;2023-03-13T12:18:33;97239.94;;;12.90;64.88
21300;BME280;10809;49.476;11.016;2023-03-13T12:21:21;97229.06;;;12.93;64.99
21300;BME280;10809;49.476;11.016;2023-03-13T12:32:42;97190.53;;;13.19;64.90
21300;BME280;10809;49.476;11.016;2023-03-13T12:35:27;97188.06;;;13.27;65.12
21300;BME280;10809;49.476;11.016;2023-03-13T12:38:14;97186.31;;;13.37;65.11
21300;BME280;10809;49.476;11.016;2023-03-13T12:43:30;97175.03;;;13.65;64.85
21300;BME280;10809;49.476;11.016;2023-03-13T12:54:21;97128.94;;;14.25;64.17
21300;BME280;10809;49.476;11.016;2023-03-13T12:59:57;97115.97;;;14.50;63.25
21300;BME280;10809;49.476;11.016;2023-03-13T13:02:29;97109.66;;;14.61;62.62
21300;BME280;10809;49.476;11.016;2023-03-13T13:05:04;97102.53;;;14.71;62.29
21300;BME280;10809;49.476;11.016;2023-03-13T13:07:36;97094.66;;;14.79;61.52
21300;BME280;10809;49.476;11.016;2023-03-13T13:12:43;97082.47;;;14.86;61.57
21300;BME280;10809;49.476;11.016;2023-03-13T13:15:25;97082.06;;;14.91;61.70
21300;BME280;10809;49.476;11.016;2023-03-13T13:18:25;97063.13;;;14.94;61.66
21300;BME280;10809;49.476;11.016;2023-03-13T13:23:37;97059.44;;;15.04;60.88
21300;BME280;10809;49.476;11.016;2023-03-13T13:39:53;97032.72;;;15.42;60.55
21300;BME280;10809;49.476;11.016;2023-03-13T13:45:17;97017.75;;;15.59;59.64
21300;BME280;10809;49.476;11.016;2023-03-13T13:47:50;97012.53;;;15.67;59.15
21300;BME280;10809;49.476;11.016;2023-03-13T13:53:52;97002.03;;;15.83;59.46
21300;BME280;10809;49.476;11.016;2023-03-13T13:56:35;97001.44;;;15.89;58.88
21300;BME280;10809;49.476;11.016;2023-03-13T14:02:16;96980.56;;;16.02;58.74
21300;BME280;10809;49.476;11.016;2023-03-13T14:05:13;96969.28;;;16.08;58.19
21300;BME280;10809;49.476;11.016;2023-03-13T14:07:49;96958.97;;;16.13;57.68
21300;BME280;10809;49.476;11.016;2023-03-13T14:10:53;96962.03;;;16.18;57.87
21300;BME280;10809;49.476;11.016;2023-03-13T14:13:27;96950.19;;;16.20;57.26
21300;BME280;10809;49.476;11.016;2023-03-13T14:16:20;96948.38;;;16.21;57.85
21300;BME280;10809;49.476;11.016;2023-03-13T14:18:54;96939.34;;;16.22;56.92
21300;BME280;10809;49.476;11.016;2023-03-13T14:21:28;96944.38;;;16.25;57.48
21300;BME280;10809;49.476;11.016;2023-03-13T14:23:59;96929.22;;;16.25;57.21
21300;BME280;10809;49.476;11.016;2023-03-13T14:26:29;96928.38;;;16.25;57.08
21300;BME280;10809;49.476;11.016;2023-03-13T14:29:01;96923.88;;;16.25;56.67
21300;BME280;10809;49.476;11.016;2023-03-13T14:31:36;96922.22;;;16.24;56.91
21300;BME280;10809;49.476;11.016;2023-03-13T14:34:10;96918.69;;;16.24;56.59
21300;BME280;10809;49.476;11.016;2023-03-13T14:37:31;96912.81;;;16.20;57.22
21300;BME280;10809;49.476;11.016;2023-03-13T14:40:18;96906.94;;;16.17;56.60
21300;BME280;10809;49.476;11.016;2023-03-13T14:43:00;96893.91;;;16.14;56.48
21300;BME280;10809;49.476;11.016;2023-03-13T14:45:33;96896.88;;;16.11;56.39
21300;BME280;10809;49.476;11.016;2023-03-13T14:50:41;96883.69;;;16.09;56.91
21300;BME280;10809;49.476;11.016;2023-03-13T14:53:20;96876.34;;;16.11;57.21
21300;BME280;10809;49.476;11.016;2023-03-13T14:56:10;96867.88;;;16.16;57.38
21300;BME280;10809;49.476;11.016;2023-03-13T14:58:45;96865.44;;;16.22;57.06
21300;BME280;10809;49.476;11.016;2023-03-13T15:01:26;96861.00;;;16.31;57.01
21300;BME280;10809;49.476;11.016;2023-03-13T15:04:03;96854.88;;;16.38;56.55
21300;BME280;10809;49.476;11.016;2023-03-13T15:06:33;96849.75;;;16.45;56.38
21300;BME280;10809;49.476;11.016;2023-03-13T15:09:21;96835.94;;;16.50;56.45
21300;BME280;10809;49.476;11.016;2023-03-13T15:11:58;96824.75;;;16.54;55.62
21300;BME280;10809;49.476;11.016;2023-03-13T15:17:10;96809.09;;;16.59;55.53
21300;BME280;10809;49.476;11.016;2023-03-13T15:19:46;96794.41;;;16.63;55.48
21300;BME280;10809;49.476;11.016;2023-03-13T15:22:20;96782.75;;;16.64;55.40
21300;BME280;10809;49.476;11.016;2023-03-13T15:24:53;96767.38;;;16.66;55.26
21300;BME280;10809;49.476;11.016;2023-03-13T15:27:28;96763.72;;;16.67;55.20
21300;BME280;10809;49.476;11.016;2023-03-13T15:29:59;96763.56;;;16.69;54.59
21300;BME280;10809;49.476;11.016;2023-03-13T15:32:35;96754.69;;;16.68;55.15